createdAt,value
2022-08-01T00:15:00.444Z,19.38
2022-08-01T00:34:38.494Z,19.03
2022-08-01T00:54:40.309Z,18.63
2022-08-01T01:14:02.671Z,18.26
2022-08-01T01:34:18.884Z,17.96
2022-08-01T01:54:13.914Z,17.72
2022-08-01T02:14:08.170Z,17.71
2022-08-01T02:34:41.269Z,17.5
2022-08-01T02:55:33.066Z,17.17
2022-08-01T03:15:14.388Z,16.95
2022-08-01T03:34:23.834Z,16.78
2022-08-01T03:54:41.329Z,16.65
2022-08-01T04:15:39.844Z,16.58
2022-08-01T04:34:12.289Z,16.55
2022-08-01T04:54:56.487Z,16.62
2022-08-01T05:15:15.594Z,16.86
2022-08-01T05:34:57.255Z,18.01
2022-08-01T05:54:23.075Z,18.92
2022-08-01T06:14:56.581Z,19.35
2022-08-01T06:34:05.173Z,19.81
2022-08-01T06:54:43.416Z,20.4
2022-08-01T07:15:26.245Z,20.98
2022-08-01T07:34:13.647Z,21.32
2022-08-01T07:54:21.106Z,21.82
2022-08-01T08:15:06.292Z,21.89
2022-08-01T08:34:50.480Z,21.91
2022-08-01T08:55:07.539Z,22.12
2022-08-01T09:15:04.868Z,18.56
2022-08-01T09:35:43.592Z,18.11
2022-08-01T09:54:51.795Z,18.81
2022-08-01T10:15:23.373Z,19.6
2022-08-01T10:34:54.221Z,20.29
2022-08-01T10:55:13.459Z,20.79
2022-08-01T11:35:10.410Z,22.06
2022-08-01T11:54:03.332Z,22.71
2022-08-01T12:13:39.607Z,22.32
2022-08-01T12:34:59.890Z,23.3
2022-08-01T12:54:54.023Z,24.92
2022-08-01T13:15:07.446Z,26.64
2022-08-01T13:34:02.078Z,27.42
2022-08-01T13:54:33.353Z,28.48
2022-08-01T14:14:31.434Z,29.11
2022-08-01T14:34:52.476Z,27.91
2022-08-01T14:55:10.846Z,27.28
2022-08-01T15:15:20.876Z,26.3
2022-08-01T15:35:12.946Z,26.45
2022-08-01T15:54:57.786Z,26.05
2022-08-01T16:14:18.777Z,25.81
2022-08-01T16:35:00.034Z,25.89
2022-08-01T16:55:29.366Z,25.61
2022-08-01T17:13:36.071Z,25.4
2022-08-01T17:34:59.200Z,24.99
2022-08-01T17:55:53.134Z,24.55
2022-08-01T18:15:54.537Z,24.36
2022-08-01T18:34:40.409Z,23.62
2022-08-01T18:55:19.828Z,23.07
2022-08-01T19:14:31.722Z,22.4
2022-08-01T19:34:31.472Z,21.97
2022-08-01T19:54:44.816Z,21.88
2022-08-01T20:13:58.215Z,21.71
2022-08-01T20:35:09.867Z,21.59
2022-08-01T20:55:38.445Z,21.11
2022-08-01T21:14:08.434Z,20.75
2022-08-01T21:34:35.511Z,20.21
2022-08-01T21:54:48.558Z,19.72
2022-08-01T22:13:57.868Z,19.53
2022-08-01T22:34:26.283Z,19.28
2022-08-01T22:55:56.971Z,19.12
2022-08-01T23:15:12.149Z,18.98
2022-08-01T23:35:04.237Z,18.61
2022-08-01T23:54:00.977Z,18.28
